Söndag 2021-10-17 17:57:49 vecka 41, namnsdag Antonia, Toini, imorgon Lukas  [Huvudmeny]   minomax.se   minomax.se/metar   minomax.se/flyg   wwwinfo.se   medd.nu  -  meddelanden   kakor METAR-data Visa METAR-temperaturer och data
Land: skriv landsbeteckning, 2 bokstäver, tex. se för Sverige. Sök land Sökord: skriv sökord, eller lämna tomt så visas alla Visar METAR för SE- Sverige Land/ IATA/ICAO Id Flygplats Temp Tid Datum region METAR... ---- ------------------------- ---- ----- ---------- ------ --- ------------... ESCF Linköping/Malmen Air Base 7 17:20 2021-10-17 SE-E --- ESCF 171520Z AUTO 27007KT 9999 NCD 07/02 Q1013= ESCM Uppsala Airport 7 17:20 2021-10-17 SE-C --- ESCM 171520Z AUTO 28009KT 9999 NCD 07/M02 Q1010= ESDF Ronneby Airport 10 17:20 2021-10-17 SE-K RNB ESDF 171520Z 28007KT 250V310 9999 FEW035 10/06 Q1014= ESGG Gothenburg-Landvetter Air 8 17:20 2021-10-17 SE-Q GOT ESGG 171520Z 31005KT 9999 NSC 08/01 Q1014= ESGJ Jönköping Airport 7 17:20 2021-10-17 SE-F JKG ESGJ 171520Z AUTO 33006KT 9999 NCD 07/01 Q1013=
ESGR Skövde Airport 7 17:20 2021-10-17 SE-Q KVB ESGR 171520Z AUTO VRB03KT 9999 NCD 07/M00 Q1014= ESGT Trollhättan-Vänersborg Ai 8 17:20 2021-10-17 SE-Q THN ESGT 171520Z AUTO 34005KT 9999 NCD 08/M01 Q1015= ESIA Karlsborg Air Base 7 17:20 2021-10-17 SE-Q --- ESIA 171520Z AUTO 29007KT 9999 NCD 07/01 Q1014= ESIB Såtenäs Air Base 7 17:20 2021-10-17 SE-Q --- ESIB 171520Z AUTO 36004KT 9999 NCD 07/M02 Q1014= ESKM Mora Airport 6 17:20 2021-10-17 SE-W MXX ESKM 171520Z AUTO 29008KT 9999 NCD 06/M04 Q1011=
ESKN Stockholm / Nyköping/Stoc 6 17:20 2021-10-17 SE-D NYO ESKN 171520Z 28007KT CAVOK 06/M02 Q1011= ESKS Sälen - Trysil Airport 4 17:20 2021-10-17 SE-W SCR ESKS 171520Z AUTO 32013KT 9999 FEW049/// 04/M05 Q1011= ESMK Kristianstad Airport 10 17:20 2021-10-17 SE-M KID ESMK 171520Z AUTO 29007KT 9999 NCD 10/07 Q1015= ESMQ Kalmar Airport 10 17:20 2021-10-17 SE-H KLR ESMQ 171520Z 29006KT 9999 -SHRA FEW048CB BKN056 10/06 Q1013= ESMS Malmö Sturup Airport 10 17:20 2021-10-17 SE-M MMX ESMS 171520Z 27007KT CAVOK 10/06 Q1016=
ESMT Halmstad Airport 10 17:20 2021-10-17 SE-N HAD ESMT 171520Z 30008KT 9999 FEW028 10/05 Q1015= ESMX Växjö Kronoberg Airport 9 17:20 2021-10-17 SE-G VXO ESMX 171520Z 29003KT 9999 FEW031 SCT041 BKN057 09/04 Q1013= ESND Sveg Airport 4 17:20 2021-10-17 SE-Z EVG ESND 171520Z 30010KT 270V340 9999 FEW044 04/M03 Q1010= ESNG Gällivare Airport 1 17:20 2021-10-17 SE-BD GEV ESNG 171520Z AUTO 33011KT 9999 DZ VV009 01/M00 Q0999= ESNK Kramfors / Sollefteå/Kram 6 17:20 2021-10-17 SE-Y KRF ESNK 171520Z AUTO 29012KT 9999 BKN049/// OVC070/// 06/M01 Q1005=
ESNL Lycksele Airport 2 17:20 2021-10-17 SE-AC LYC ESNL 171520Z 30008KT 9999 FEW027 02/00 Q1002= ESNN Sundsvall/ Härnösand/Sund 6 17:20 2021-10-17 SE-Y SDL ESNN 171520Z AUTO 30013KT 9999 FEW110/// 06/M01 Q1006= ESNO Örnsköldsvik Airport 3 17:20 2021-10-17 SE-Y OER ESNO 171520Z 29016KT 9999 BKN041 03/01 Q1002= ESNQ Kiruna Airport 1 17:20 2021-10-17 SE-BD KRN ESNQ 171520Z AUTO 35007KT 9999 BKN042/// OVC072/// 01/M00 Q0999= ESNS Skellefteå Airport 2 17:20 2021-10-17 SE-AC SFT ESNS 171520Z 29014KT 9999 DZ VV029 02/01 Q0999=
ESNU Umeå Airport 3 17:20 2021-10-17 SE-AC UME ESNU 171520Z 30012KT 9999 -DZ SCT017 BKN040 03/02 Q1001= ESNV Vilhelmina Airport 3 17:20 2021-10-17 SE-AC VHM ESNV 171520Z AUTO 31008KT 290V350 9999 NCD 03/M03 Q1003= ESNX Arvidsjaur Airport 1 17:20 2021-10-17 SE-BD AJR ESNX 171520Z AUTO 30010KT 8000 -PL ///044/// 01/00 Q1000 REDZ= ESNZ Åre Östersund Airport 3 17:20 2021-10-17 SE-Z OSD ESNZ 171520Z 30019KT 9999 SCT019 03/M00 Q1008= ESOE Örebro Airport 8 17:20 2021-10-17 SE-T ORB ESOE 171520Z AUTO 28008KT 9999 NCD 08/M04 Q1013=
ESOH Hagfors Airport 6 17:20 2021-10-17 SE-S HFS ESOH 171520Z AUTO 00000KT 9999 NCD 06/M03 Q1013= ESOK Karlstad Airport 7 17:20 2021-10-17 SE-S KSD ESOK 171520Z AUTO 29003KT 9999 NCD 07/M02 Q1014= ESOW Stockholm Västerås Airpor 8 17:20 2021-10-17 SE-U VST ESOW 171520Z AUTO 28006KT 230V310 9999 NCD 08/M05 Q1011= ESPA Luleå Airport 3 17:20 2021-10-17 SE-BD LLA ESPA 171520Z 33017KT 9999 -RA VV027 03/01 Q0997= ESPE Vidsel Air Base 2 17:20 2021-10-17 SE-BD --- ESPE 171520Z AUTO 32010KT 9999 -SHRA VV040 02/01 Q1000=
ESSA Stockholm-Arlanda Airport 6 17:20 2021-10-17 SE-AB ARN ESSA 171520Z 29009KT CAVOK 06/M04 Q1010 NOSIG= ESSB Stockholm-Bromma Airport 8 17:20 2021-10-17 SE-AB BMA ESSB 171520Z 27010KT CAVOK 08/M03 Q1010= ESSD Borlange Airport 6 17:20 2021-10-17 SE-W BLE ESSD 171520Z AUTO 28010KT 9999 NCD 06/M04 Q1010= ESSL Linköping City Airport 7 17:20 2021-10-17 SE-E LPI ESSL 171520Z 31007KT CAVOK 07/00 Q1012= ESSP Norrköping Airport 7 17:20 2021-10-17 SE-E NRK ESSP 171520Z AUTO 29008KT 9999 NCD 07/M01 Q1012=
ESST Torsby Airport 6 17:20 2021-10-17 SE-S TYF ESST 171520Z AUTO 28006KT 9999 NCD 06/M02 Q1014= ESSV Visby Airport 9 17:20 2021-10-17 SE-I VBY ESSV 171520Z 32006KT CAVOK 09/04 Q1011= ESTA Ängelholm-Helsingborg Air 10 17:20 2021-10-17 SE-M AGH ESTA 171520Z 29012KT 9999 FEW023 SCT038 10/05 Q1015= ESTL Ljungbyhed Airport 8 17:20 2021-10-17 SE-M --- ESTL 171520Z AUTO 28006KT 9999 NCD 08/08 Q1015= ESUP Pajala Airport 2 17:20 2021-10-17 SE-BD PJA ESUP 171520Z 33011KT 9999 SCT020 BKN025 OVC060 02/M00 Q0996=
ESUT Hemavan Airport 2 17:20 2021-10-17 SE-AC HMV ESUT 171520Z AUTO 33011KT 9999 SCT022/// OVC030/// 02/M01 Q1004= (46 rader visades) Du kan lägga till id-beteckningen först på raden i valfri Lista 1 - 5 [top] ↕°C [1] [2] [3] [4] [5] ??? LISTOR 00-nr NOT MEDD MT METAR SYNOP SE SE-AB SE-C SE-D SE-E SE-F SE-G SE-H SE-I SE-K SE-M SE-N SE-O SE-P SE-T SE-U SE-W SE-X SE-Y SE-Z SE-AC SE-BD rådata flyg flyg_osd